Time;durP1;ratioP1;P1;durP2;ratioP2;P2;SDS_P1;SDS_P2;PMS_P1;PMS_P2;Temp;Humidity;BMP_temperature;BMP_pressure;BME280_temperature;BME280_humidity;BME280_pressure;Samples;Min_cycle;Max_cycle;Signal;HPM_P1;HPM_P2
2023/12/28 00:01:12;;;;;;;37.65;16.45;;;;;;;;;;5039199;28;20036;-54
2023/12/28 00:03:37;;;;;;;44.35;17.67;;;;;;;;;;5045223;28;20039;-53
2023/12/28 00:06:02;;;;;;;38.78;14.18;;;;;;;;;;5039524;28;20025;-53
2023/12/28 00:08:28;;;;;;;39.42;15.40;;;;;;;;;;5042429;28;20553;-53
2023/12/28 00:10:53;;;;;;;33.33;14.25;;;;;;;;;;5038664;28;20043;-55
2023/12/28 00:13:18;;;;;;;26.25;12.40;;;;;;;;;;5041155;28;20031;-54
2023/12/28 00:15:44;;;;;;;22.85;12.15;;;;;;;;;;5040530;28;20475;-55
2023/12/28 00:18:09;;;;;;;29.67;12.95;;;;;;;;;;5041145;28;20623;-52
2023/12/28 00:20:34;;;;;;;33.55;15.52;;;;;;;;;;5039400;28;20111;-56
2023/12/28 00:23:00;;;;;;;35.78;14.70;;;;;;;;;;5047173;28;20041;-52
2023/12/28 00:25:25;;;;;;;39.60;15.45;;;;;;;;;;5039199;28;20056;-51
2023/12/28 00:27:50;;;;;;;31.10;15.85;;;;;;;;;;5039621;28;20397;-54
2023/12/28 00:30:17;;;;;;;36.60;14.82;;;;;;;;;;5039718;28;20045;-53
2023/12/28 00:32:44;;;;;;;35.45;16.05;;;;;;;;;;5040669;28;20464;-52
2023/12/28 00:35:09;;;;;;;31.77;14.27;;;;;;;;;;5040768;28;20036;-54
2023/12/28 00:37:34;;;;;;;31.95;14.90;;;;;;;;;;5042811;28;20086;-55
2023/12/28 00:40:00;;;;;;;37.13;16.38;;;;;;;;;;5039319;28;20040;-55
2023/12/28 00:42:25;;;;;;;35.13;16.05;;;;;;;;;;5039250;28;20401;-52
2023/12/28 00:44:50;;;;;;;27.83;14.32;;;;;;;;;;5037115;28;20764;-52
2023/12/28 00:47:15;;;;;;;29.20;13.90;;;;;;;;;;5039934;28;20029;-52
2023/12/28 00:49:41;;;;;;;32.65;13.70;;;;;;;;;;5038448;28;20088;-54
2023/12/28 00:52:06;;;;;;;24.63;13.50;;;;;;;;;;5040622;28;20374;-52
2023/12/28 00:54:31;;;;;;;29.60;13.30;;;;;;;;;;5038633;28;20052;-54
2023/12/28 00:56:56;;;;;;;23.23;12.75;;;;;;;;;;5040263;28;20032;-51
2023/12/28 00:59:22;;;;;;;34.40;15.02;;;;;;;;;;5038962;28;20393;-55
2023/12/28 01:01:47;;;;;;;28.90;15.50;;;;;;;;;;5031866;28;20040;-55
2023/12/28 01:04:12;;;;;;;33.25;14.73;;;;;;;;;;5027441;28;20612;-53
2023/12/28 01:06:38;;;;;;;28.60;14.75;;;;;;;;;;5028059;28;20106;-50
2023/12/28 01:09:03;;;;;;;26.40;14.05;;;;;;;;;;5025748;28;20033;-54
2023/12/28 01:11:28;;;;;;;32.70;14.23;;;;;;;;;;5027493;28;20036;-53
2023/12/28 01:13:53;;;;;;;29.83;15.02;;;;;;;;;;5026608;28;20025;-54
2023/12/28 01:16:19;;;;;;;28.42;14.57;;;;;;;;;;5025713;28;20689;-55
2023/12/28 01:18:44;;;;;;;28.73;14.35;;;;;;;;;;5026578;28;20691;-54
2023/12/28 01:21:09;;;;;;;25.55;13.30;;;;;;;;;;5032115;28;20519;-52
2023/12/28 01:23:35;;;;;;;31.52;14.68;;;;;;;;;;5027774;28;20362;-53
2023/12/28 01:26:00;;;;;;;29.70;14.25;;;;;;;;;;5025548;28;20029;-50
2023/12/28 01:28:25;;;;;;;31.13;14.50;;;;;;;;;;5027137;28;20032;-55
2023/12/28 01:30:50;;;;;;;32.05;14.50;;;;;;;;;;5001923;28;20056;-54
2023/12/28 01:33:16;;;;;;;28.20;14.38;;;;;;;;;;5026329;28;20040;-53
2023/12/28 01:35:41;;;;;;;30.00;14.05;;;;;;;;;;5024675;28;20460;-54
2023/12/28 01:38:07;;;;;;;31.15;16.08;;;;;;;;;;5025492;28;20029;-55
2023/12/28 01:40:32;;;;;;;27.90;14.23;;;;;;;;;;5024527;28;20040;-51
2023/12/28 01:42:57;;;;;;;31.80;14.70;;;;;;;;;;5025975;28;23098;-53
2023/12/28 01:45:23;;;;;;;31.05;14.35;;;;;;;;;;5023351;28;20059;-51
2023/12/28 01:47:48;;;;;;;27.27;14.70;;;;;;;;;;5025747;28;20036;-53
2023/12/28 01:50:14;;;;;;;26.55;14.13;;;;;;;;;;5024250;28;20146;-52
2023/12/28 01:52:39;;;;;;;29.58;14.15;;;;;;;;;;5025606;28;20033;-52
2023/12/28 01:55:05;;;;;;;28.27;14.10;;;;;;;;;;5024137;28;20433;-53
2023/12/28 01:57:30;;;;;;;29.33;13.23;;;;;;;;;;5005464;28;20079;-51
2023/12/28 01:59:58;;;;;;;28.75;14.38;;;;;;;;;;5023777;28;20036;-52
2023/12/28 02:02:24;;;;;;;33.55;15.05;;;;;;;;;;5027089;28;20553;-55
2023/12/28 02:04:49;;;;;;;26.50;13.90;;;;;;;;;;5023873;28;20170;-55
2023/12/28 02:07:14;;;;;;;33.85;15.02;;;;;;;;;;5024091;28;20039;-54
2023/12/28 02:09:40;;;;;;;29.75;14.82;;;;;;;;;;5023611;28;20529;-52
2023/12/28 02:12:05;;;;;;;31.85;15.40;;;;;;;;;;5024195;28;20132;-54
2023/12/28 02:14:31;;;;;;;37.28;15.65;;;;;;;;;;5022427;28;20128;-52
2023/12/28 02:17:32;;;;;;;32.55;14.82;;;;;;;;;;5025825;28;20091;-51
2023/12/28 02:19:57;;;;;;;35.50;14.70;;;;;;;;;;5000276;28;20148;-56
2023/12/28 02:22:26;;;;;;;35.60;15.95;;;;;;;;;;5006622;28;20041;-54
2023/12/28 02:24:54;;;;;;;39.13;17.52;;;;;;;;;;4999582;28;20174;-53
2023/12/28 02:27:19;;;;;;;35.42;16.92;;;;;;;;;;5003567;28;20136;-54
2023/12/28 02:29:45;;;;;;;36.22;17.70;;;;;;;;;;5001272;28;20718;-53
2023/12/28 02:32:11;;;;;;;34.78;17.08;;;;;;;;;;5002297;28;20136;-55
2023/12/28 02:34:39;;;;;;;37.25;18.15;;;;;;;;;;4998703;28;20045;-53
2023/12/28 02:37:04;;;;;;;39.45;19.27;;;;;;;;;;5007240;28;20434;-55
2023/12/28 02:39:30;;;;;;;44.60;19.83;;;;;;;;;;4999098;28;20038;-51
2023/12/28 02:41:55;;;;;;;44.90;20.90;;;;;;;;;;5005344;28;20208;-55
2023/12/28 02:44:21;;;;;;;43.92;20.50;;;;;;;;;;5002321;28;20025;-51
2023/12/28 02:46:46;;;;;;;40.35;19.20;;;;;;;;;;5000895;28;20590;-54
2023/12/28 02:49:12;;;;;;;43.15;20.70;;;;;;;;;;5000634;28;20068;-54
2023/12/28 02:51:37;;;;;;;42.83;20.67;;;;;;;;;;5001892;28;20079;-49
2023/12/28 02:54:02;;;;;;;38.50;18.58;;;;;;;;;;5012232;28;20029;-55
2023/12/28 02:56:28;;;;;;;37.40;19.08;;;;;;;;;;5024466;28;20033;-51
2023/12/28 02:58:53;;;;;;;37.72;18.80;;;;;;;;;;5023658;28;20524;-55
2023/12/28 03:01:18;;;;;;;38.88;19.00;;;;;;;;;;5019885;28;20055;-54
2023/12/28 03:03:44;;;;;;;43.10;20.33;;;;;;;;;;5018584;28;20344;-52
2023/12/28 03:06:09;;;;;;;36.38;19.45;;;;;;;;;;5022865;28;20361;-56
2023/12/28 03:08:34;;;;;;;41.35;20.30;;;;;;;;;;5022551;28;20496;-56
2023/12/28 03:10:59;;;;;;;43.78;21.52;;;;;;;;;;5022548;28;20021;-50
2023/12/28 03:13:25;;;;;;;39.50;20.25;;;;;;;;;;5022902;28;20132;-55
2023/12/28 03:15:50;;;;;;;42.28;19.77;;;;;;;;;;5023296;28;20029;-51
2023/12/28 03:18:15;;;;;;;44.20;21.90;;;;;;;;;;5023220;28;20499;-53
2023/12/28 03:20:40;;;;;;;40.80;20.27;;;;;;;;;;5026838;28;20063;-54
2023/12/28 03:23:06;;;;;;;44.75;20.60;;;;;;;;;;5029305;28;20031;-54
2023/12/28 03:25:31;;;;;;;47.05;21.27;;;;;;;;;;5022294;28;20020;-53
2023/12/28 03:27:56;;;;;;;44.80;20.88;;;;;;;;;;5024923;28;20776;-54
2023/12/28 03:30:21;;;;;;;39.92;19.15;;;;;;;;;;5021840;28;20029;-55
2023/12/28 03:32:47;;;;;;;47.22;22.60;;;;;;;;;;5023503;28;20036;-53
2023/12/28 03:35:12;;;;;;;45.80;21.23;;;;;;;;;;5022923;28;20165;-51
2023/12/28 03:37:37;;;;;;;42.42;20.50;;;;;;;;;;5023648;28;20025;-53
2023/12/28 03:40:03;;;;;;;49.38;23.15;;;;;;;;;;5021609;28;20380;-52
2023/12/28 03:42:28;;;;;;;44.90;21.48;;;;;;;;;;5028434;28;20021;-52
2023/12/28 03:44:54;;;;;;;47.20;21.90;;;;;;;;;;5022324;28;20678;-52
2023/12/28 03:47:19;;;;;;;40.30;20.58;;;;;;;;;;5024368;28;20065;-52
2023/12/28 03:49:44;;;;;;;45.05;21.83;;;;;;;;;;5021909;28;20049;-53
2023/12/28 03:52:09;;;;;;;46.03;20.90;;;;;;;;;;5051020;28;20033;-51
2023/12/28 03:54:35;;;;;;;44.47;22.13;;;;;;;;;;5024928;28;20561;-51
2023/12/28 03:57:00;;;;;;;42.25;20.40;;;;;;;;;;5025779;28;20750;-52
2023/12/28 03:59:25;;;;;;;43.03;20.25;;;;;;;;;;5021775;28;20057;-55
2023/12/28 04:01:51;;;;;;;45.67;21.08;;;;;;;;;;5024011;28;20032;-53
2023/12/28 04:04:16;;;;;;;37.38;20.73;;;;;;;;;;5022601;28;20072;-54
2023/12/28 04:06:43;;;;;;;39.22;20.40;;;;;;;;;;5023114;28;20376;-52
2023/12/28 04:09:11;;;;;;;44.45;21.38;;;;;;;;;;5020541;28;20779;-56
2023/12/28 04:11:37;;;;;;;44.58;20.38;;;;;;;;;;5023631;28;20064;-51
2023/12/28 04:14:02;;;;;;;40.42;19.88;;;;;;;;;;5024318;28;21978;-54
2023/12/28 04:16:28;;;;;;;35.72;18.85;;;;;;;;;;5023830;28;20202;-55
2023/12/28 04:18:53;;;;;;;38.33;19.30;;;;;;;;;;5022783;28;20489;-55
2023/12/28 04:21:18;;;;;;;40.38;20.75;;;;;;;;;;5023062;28;20041;-55
2023/12/28 04:23:44;;;;;;;42.53;20.52;;;;;;;;;;5031429;28;20063;-54
2023/12/28 04:26:09;;;;;;;42.42;20.45;;;;;;;;;;5021978;28;20378;-50
2023/12/28 04:28:35;;;;;;;43.70;19.80;;;;;;;;;;5024069;28;20490;-53
2023/12/28 04:31:04;;;;;;;41.10;20.25;;;;;;;;;;5021666;28;20167;-53
2023/12/28 04:33:30;;;;;;;;;;;;;;;;;;5024775;28;20379;-54
2023/12/28 04:35:55;;;;;;;37.92;19.92;;;;;;;;;;5022531;28;19915;-52
2023/12/28 04:38:20;;;;;;;49.05;21.23;;;;;;;;;;5025961;28;20039;-54
2023/12/28 04:40:46;;;;;;;37.08;18.92;;;;;;;;;;5032616;28;20166;-54
2023/12/28 04:43:11;;;;;;;37.45;18.10;;;;;;;;;;5030267;28;20082;-50
2023/12/28 04:45:36;;;;;;;35.55;18.65;;;;;;;;;;5028369;28;20469;-53
2023/12/28 04:48:02;;;;;;;38.65;19.38;;;;;;;;;;5025885;28;20047;-54
2023/12/28 04:50:27;;;;;;;40.38;20.48;;;;;;;;;;5024506;28;20485;-55
2023/12/28 04:52:52;;;;;;;46.40;20.73;;;;;;;;;;5028902;28;20059;-52
2023/12/28 04:55:17;;;;;;;41.60;20.80;;;;;;;;;;5024125;28;20063;-51
2023/12/28 04:57:43;;;;;;;34.95;18.42;;;;;;;;;;5026471;28;20025;-56
2023/12/28 05:00:08;;;;;;;39.30;18.25;;;;;;;;;;5025778;28;20086;-53
2023/12/28 05:02:34;;;;;;;37.85;19.98;;;;;;;;;;5040484;28;20049;-52
2023/12/28 05:04:59;;;;;;;37.13;18.67;;;;;;;;;;5025663;28;20598;-54
2023/12/28 05:07:24;;;;;;;39.65;20.17;;;;;;;;;;5026965;28;20082;-55
2023/12/28 05:09:49;;;;;;;39.75;19.42;;;;;;;;;;5024679;28;20308;-53
2023/12/28 05:12:15;;;;;;;39.40;20.10;;;;;;;;;;5025223;28;20025;-55
2023/12/28 05:14:40;;;;;;;34.83;19.40;;;;;;;;;;5025648;28;20733;-54
2023/12/28 05:17:05;;;;;;;41.58;19.48;;;;;;;;;;5026430;28;20029;-55
2023/12/28 05:19:30;;;;;;;41.83;21.02;;;;;;;;;;5024443;28;20076;-53
2023/12/28 05:21:56;;;;;;;35.72;18.80;;;;;;;;;;5027961;28;20405;-56
2023/12/28 05:24:21;;;;;;;42.60;20.02;;;;;;;;;;5031049;28;20403;-56
2023/12/28 05:26:46;;;;;;;46.47;20.48;;;;;;;;;;5025453;28;20024;-53
2023/12/28 05:29:11;;;;;;;39.28;19.98;;;;;;;;;;5017920;28;22641;-53
2023/12/28 05:31:37;;;;;;;38.58;20.40;;;;;;;;;;5028271;28;20168;-55
2023/12/28 05:34:02;;;;;;;40.47;20.65;;;;;;;;;;5025101;28;20702;-51
2023/12/28 05:36:28;;;;;;;37.08;19.77;;;;;;;;;;5026335;28;20091;-54
2023/12/28 05:38:53;;;;;;;40.90;20.48;;;;;;;;;;5034079;28;20025;-54
2023/12/28 05:41:19;;;;;;;36.70;19.45;;;;;;;;;;5026376;28;20039;-55
2023/12/28 05:43:44;;;;;;;42.88;21.13;;;;;;;;;;5031386;28;20029;-55
2023/12/28 05:46:09;;;;;;;45.53;21.90;;;;;;;;;;5023785;28;20060;-51
2023/12/28 05:48:35;;;;;;;45.63;22.40;;;;;;;;;;5025964;28;20076;-54
2023/12/28 05:51:00;;;;;;;49.55;24.38;;;;;;;;;;5025055;28;20084;-54
2023/12/28 05:53:26;;;;;;;56.03;24.80;;;;;;;;;;5028599;28;20036;-53
2023/12/28 05:55:52;;;;;;;51.83;24.30;;;;;;;;;;5023674;28;20178;-52
2023/12/28 05:58:17;;;;;;;54.78;25.10;;;;;;;;;;5026148;28;20033;-52
2023/12/28 06:00:42;;;;;;;51.38;24.00;;;;;;;;;;5023854;28;20493;-51
2023/12/28 06:03:08;;;;;;;51.65;24.15;;;;;;;;;;5026409;28;20116;-55
2023/12/28 06:05:33;;;;;;;43.13;22.90;;;;;;;;;;5026479;28;20284;-52
2023/12/28 06:07:58;;;;;;;58.63;27.67;;;;;;;;;;5025993;28;20131;-50
2023/12/28 06:10:26;;;;;;;61.20;27.60;;;;;;;;;;5041330;28;20140;-51
2023/12/28 06:12:52;;;;;;;87.63;32.83;;;;;;;;;;5025070;28;20098;-52
2023/12/28 06:15:17;;;;;;;55.08;27.55;;;;;;;;;;5024305;28;20103;-54
2023/12/28 06:17:42;;;;;;;53.58;26.08;;;;;;;;;;5036478;28;20076;-50
2023/12/28 06:20:08;;;;;;;65.82;28.52;;;;;;;;;;5025415;28;20499;-51
2023/12/28 06:22:34;;;;;;;60.13;27.88;;;;;;;;;;5033001;28;20051;-55
2023/12/28 06:24:59;;;;;;;50.13;27.08;;;;;;;;;;5023551;28;20052;-52
2023/12/28 06:27:24;;;;;;;58.17;27.83;;;;;;;;;;5023727;28;20492;-56
2023/12/28 06:29:49;;;;;;;54.15;26.73;;;;;;;;;;5024502;28;20052;-51
2023/12/28 06:32:15;;;;;;;56.30;27.35;;;;;;;;;;5025737;28;20726;-53
2023/12/28 06:34:40;;;;;;;64.93;28.73;;;;;;;;;;5023901;28;20392;-48
2023/12/28 06:37:05;;;;;;;53.53;26.25;;;;;;;;;;5029775;28;20064;-50
2023/12/28 06:39:30;;;;;;;55.85;25.52;;;;;;;;;;5022317;28;20068;-55
2023/12/28 06:41:56;;;;;;;59.40;28.75;;;;;;;;;;5026146;28;20119;-55
2023/12/28 06:44:21;;;;;;;52.80;26.13;;;;;;;;;;5025892;28;20273;-52
2023/12/28 06:46:46;;;;;;;59.85;28.63;;;;;;;;;;5023428;28;20025;-54
2023/12/28 06:49:11;;;;;;;67.07;30.20;;;;;;;;;;5023267;28;20064;-51
2023/12/28 06:51:37;;;;;;;59.78;29.85;;;;;;;;;;5024592;28;20025;-52
2023/12/28 06:54:02;;;;;;;67.72;29.65;;;;;;;;;;5023775;28;20464;-52
2023/12/28 06:56:28;;;;;;;51.40;29.25;;;;;;;;;;5023041;28;20043;-49
2023/12/28 06:58:53;;;;;;;60.90;31.83;;;;;;;;;;5022840;28;20025;-54
2023/12/28 07:01:19;;;;;;;63.15;31.35;;;;;;;;;;5024073;28;20086;-53
2023/12/28 07:03:44;;;;;;;60.25;29.90;;;;;;;;;;5023747;28;20025;-51
2023/12/28 07:06:09;;;;;;;64.20;29.20;;;;;;;;;;5023141;28;20033;-51
2023/12/28 07:08:35;;;;;;;60.35;29.17;;;;;;;;;;5025799;28;20415;-53
2023/12/28 07:11:01;;;;;;;56.22;29.45;;;;;;;;;;5020625;28;21894;-53
2023/12/28 07:13:26;;;;;;;59.78;31.02;;;;;;;;;;5023539;28;20028;-55
2023/12/28 07:15:52;;;;;;;67.05;31.02;;;;;;;;;;5038745;28;20081;-55
2023/12/28 07:18:17;;;;;;;60.05;29.80;;;;;;;;;;5028864;28;20056;-53
2023/12/28 07:20:42;;;;;;;63.90;30.33;;;;;;;;;;5027894;28;20041;-51
2023/12/28 07:23:08;;;;;;;67.78;33.67;;;;;;;;;;5029953;28;21097;-52
2023/12/28 07:25:34;;;;;;;59.67;31.35;;;;;;;;;;5022478;28;20021;-55
2023/12/28 07:27:59;;;;;;;52.63;29.33;;;;;;;;;;5031117;28;22049;-54
2023/12/28 07:30:24;;;;;;;58.53;30.00;;;;;;;;;;5031230;28;20495;-54
2023/12/28 07:32:50;;;;;;;60.17;29.15;;;;;;;;;;5029233;28;20638;-52
2023/12/28 07:35:15;;;;;;;55.10;28.92;;;;;;;;;;5024390;28;20617;-55
2023/12/28 07:40:15;;;;;;;53.38;27.15;;;;;;;;;;5032659;27;1470676;-52
2023/12/28 07:42:40;;;;;;;51.65;27.10;;;;;;;;;;5076500;28;20035;-51
2023/12/28 07:45:06;;;;;;;53.17;28.15;;;;;;;;;;5072337;28;20436;-54
2023/12/28 07:47:31;;;;;;;47.65;25.92;;;;;;;;;;5073167;28;20024;-54
2023/12/28 07:49:57;;;;;;;45.55;26.02;;;;;;;;;;5077957;28;20028;-51
2023/12/28 07:52:22;;;;;;;46.85;23.92;;;;;;;;;;5070307;28;20040;-53
2023/12/28 07:54:47;;;;;;;49.83;25.92;;;;;;;;;;5074129;28;20048;-55
2023/12/28 07:57:13;;;;;;;48.38;25.77;;;;;;;;;;5074255;28;20023;-56
2023/12/28 07:59:38;;;;;;;44.90;23.20;;;;;;;;;;5073084;28;20773;-52
2023/12/28 08:02:03;;;;;;;40.92;22.15;;;;;;;;;;5079322;28;20539;-52
2023/12/28 08:04:29;;;;;;;42.10;22.35;;;;;;;;;;5077344;28;20028;-54
2023/12/28 08:06:54;;;;;;;48.97;22.77;;;;;;;;;;5056385;28;20180;-54
2023/12/28 08:09:19;;;;;;;45.75;22.73;;;;;;;;;;5073544;28;20051;-57
2023/12/28 08:11:45;;;;;;;47.80;21.80;;;;;;;;;;5076898;28;20035;-54
2023/12/28 08:14:10;;;;;;;43.25;22.40;;;;;;;;;;5073923;28;20018;-54
2023/12/28 08:16:36;;;;;;;46.95;24.50;;;;;;;;;;5074487;28;20034;-56
2023/12/28 08:19:01;;;;;;;44.88;23.38;;;;;;;;;;5077835;28;20039;-59
2023/12/28 08:21:26;;;;;;;44.33;24.10;;;;;;;;;;5074355;28;20475;-55
2023/12/28 08:23:52;;;;;;;43.10;23.55;;;;;;;;;;5072026;28;20570;-57
2023/12/28 08:26:17;;;;;;;42.42;24.30;;;;;;;;;;5074410;28;20035;-56
2023/12/28 08:28:42;;;;;;;58.28;27.05;;;;;;;;;;5058886;28;20122;-56
2023/12/28 08:31:08;;;;;;;56.38;25.60;;;;;;;;;;5037999;28;20427;-55
2023/12/28 08:33:35;;;;;;;51.55;25.30;;;;;;;;;;5075378;28;20355;-52
2023/12/28 08:36:00;;;;;;;59.10;27.05;;;;;;;;;;5074331;28;20051;-53
2023/12/28 08:38:25;;;;;;;48.30;23.08;;;;;;;;;;5077358;28;20040;-55
2023/12/28 08:40:51;;;;;;;150.35;51.80;;;;;;;;;;5072868;28;20047;-52
2023/12/28 08:43:16;;;;;;;37.22;23.63;;;;;;;;;;5074007;28;20035;-53
2023/12/28 08:45:41;;;;;;;48.20;24.77;;;;;;;;;;5073189;28;20024;-55
2023/12/28 08:50:22;;;;;;;41.88;22.42;;;;;;;;;;5017948;28;20392;-56
2023/12/28 08:52:47;;;;;;;43.10;23.42;;;;;;;;;;4999209;28;20033;-54
2023/12/28 08:55:12;;;;;;;40.03;21.55;;;;;;;;;;4999443;28;20051;-53
2023/12/28 08:57:38;;;;;;;37.03;21.08;;;;;;;;;;5000420;28;20565;-54
2023/12/28 09:00:04;;;;;;;40.38;22.17;;;;;;;;;;5000078;28;20392;-56
2023/12/28 09:02:30;;;;;;;35.65;20.70;;;;;;;;;;5000126;28;20425;-55
2023/12/28 09:04:55;;;;;;;45.00;22.17;;;;;;;;;;4999953;28;20033;-54
2023/12/28 09:07:20;;;;;;;38.47;22.30;;;;;;;;;;5001215;28;20030;-54
2023/12/28 09:09:46;;;;;;;45.03;21.95;;;;;;;;;;5003023;28;20162;-56
2023/12/28 09:12:11;;;;;;;39.83;22.15;;;;;;;;;;5033116;28;20474;-57
2023/12/28 09:14:36;;;;;;;53.75;25.30;;;;;;;;;;5004805;28;20045;-55
2023/12/28 09:17:02;;;;;;;45.08;24.83;;;;;;;;;;5000705;28;20026;-56
2023/12/28 09:19:27;;;;;;;43.25;23.30;;;;;;;;;;4995852;28;20534;-57
2023/12/28 09:21:52;;;;;;;38.15;22.05;;;;;;;;;;4999649;28;20181;-55
2023/12/28 09:26:33;;;;;;;42.60;21.42;;;;;;;;;;5026378;28;20894;-57
2023/12/28 09:28:58;;;;;;;38.28;21.98;;;;;;;;;;5022989;28;20040;-56
2023/12/28 09:31:24;;;;;;;49.95;22.60;;;;;;;;;;5011999;28;20937;-57
2023/12/28 09:33:49;;;;;;;60.95;22.85;;;;;;;;;;5016137;28;20326;-56
2023/12/28 09:36:15;;;;;;;33.20;19.77;;;;;;;;;;5026000;28;20450;-57
2023/12/28 09:38:40;;;;;;;32.85;19.77;;;;;;;;;;5013173;28;20157;-56
2023/12/28 09:41:15;;;;;;;49.20;22.42;;;;;;;;;;5012279;28;20578;-58
2023/12/28 09:43:58;;;;;;;38.30;23.50;;;;;;;;;;5017188;28;20132;-56
2023/12/28 09:46:26;;;;;;;36.72;21.08;;;;;;;;;;5014195;28;20123;-57
2023/12/28 09:48:53;;;;;;;36.63;20.20;;;;;;;;;;5014495;28;20028;-57
2023/12/28 09:51:19;;;;;;;46.03;19.88;;;;;;;;;;5035835;28;20520;-56
2023/12/28 09:53:45;;;;;;;35.88;21.10;;;;;;;;;;5032469;28;20029;-57
2023/12/28 09:56:11;;;;;;;35.45;20.10;;;;;;;;;;5012623;28;20651;-55
2023/12/28 09:58:36;;;;;;;38.88;20.63;;;;;;;;;;5019959;28;20485;-58
2023/12/28 10:01:02;;;;;;;38.78;18.45;;;;;;;;;;5012921;28;20040;-54
2023/12/28 10:03:27;;;;;;;80.38;16.15;;;;;;;;;;5017584;28;20029;-56
2023/12/28 10:05:53;;;;;;;21.60;10.47;;;;;;;;;;5015299;28;20033;-57
2023/12/28 10:08:18;;;;;;;23.08;10.45;;;;;;;;;;5015658;28;20653;-56
2023/12/28 10:10:50;;;;;;;28.98;9.63;;;;;;;;;;5045175;28;20041;-55
2023/12/28 10:13:16;;;;;;;19.45;10.05;;;;;;;;;;5013515;28;20028;-57
2023/12/28 10:15:43;;;;;;;23.25;10.65;;;;;;;;;;5015452;28;20527;-58
2023/12/28 10:18:08;;;;;;;22.42;10.25;;;;;;;;;;5014251;28;20757;-54
2023/12/28 10:20:33;;;;;;;17.30;10.00;;;;;;;;;;5016824;28;20029;-58
2023/12/28 10:22:59;;;;;;;23.27;10.13;;;;;;;;;;5015190;28;20042;-55
2023/12/28 10:25:25;;;;;;;16.08;9.07;;;;;;;;;;5014446;28;20052;-57
2023/12/28 10:27:52;;;;;;;13.82;8.88;;;;;;;;;;5014941;28;20486;-57
2023/12/28 10:30:17;;;;;;;18.40;8.77;;;;;;;;;;5012918;28;20044;-57
2023/12/28 10:32:42;;;;;;;12.40;8.07;;;;;;;;;;5012682;28;20033;-57
2023/12/28 10:35:08;;;;;;;16.80;8.73;;;;;;;;;;5041839;28;20550;-59
2023/12/28 10:37:35;;;;;;;12.90;8.45;;;;;;;;;;5010898;28;20279;-57
2023/12/28 10:40:03;;;;;;;18.83;9.98;;;;;;;;;;4997999;28;20033;-57
2023/12/28 10:42:32;;;;;;;14.63;7.97;;;;;;;;;;5000319;28;23227;-59
2023/12/28 10:45:07;;;;;;;14.27;7.95;;;;;;;;;;5002869;28;20051;-56
2023/12/28 10:47:35;;;;;;;14.98;8.65;;;;;;;;;;5000404;28;20030;-58
2023/12/28 10:50:04;;;;;;;14.95;8.10;;;;;;;;;;4999424;28;20029;-57
2023/12/28 10:52:29;;;;;;;;;;;;;;;;;;5032030;28;20770;-58
2023/12/28 10:55:07;;;;;;;19.60;8.77;;;;;;;;;;4996853;28;20408;-57
2023/12/28 10:57:40;;;;;;;12.32;7.53;;;;;;;;;;4997977;28;20087;-58
2023/12/28 11:00:07;;;;;;;16.67;8.82;;;;;;;;;;5002729;28;20038;-56
2023/12/28 11:02:37;;;;;;;15.93;7.28;;;;;;;;;;5001762;28;21808;-55
2023/12/28 11:05:03;;;;;;;27.65;10.20;;;;;;;;;;4997949;28;20041;-57
2023/12/28 11:07:32;;;;;;;16.10;7.03;;;;;;;;;;5000050;28;20087;-57
2023/12/28 11:09:58;;;;;;;10.07;6.45;;;;;;;;;;4998050;28;20033;-55
2023/12/28 11:12:25;;;;;;;12.65;6.15;;;;;;;;;;4998425;28;22861;-59
2023/12/28 11:14:52;;;;;;;16.58;7.15;;;;;;;;;;4998921;28;20505;-57
2023/12/28 11:17:18;;;;;;;14.10;6.47;;;;;;;;;;5014185;28;20061;-55
2023/12/28 11:19:44;;;;;;;12.93;6.32;;;;;;;;;;4999078;28;20251;-58
2023/12/28 11:22:09;;;;;;;19.88;6.63;;;;;;;;;;5010114;28;20704;-57
2023/12/28 11:24:36;;;;;;;12.88;6.43;;;;;;;;;;4997845;28;20459;-57
2023/12/28 11:27:01;;;;;;;13.68;5.57;;;;;;;;;;5001994;28;20033;-58
2023/12/28 11:29:30;;;;;;;10.35;4.28;;;;;;;;;;5004283;28;20047;-57
2023/12/28 11:31:57;;;;;;;10.38;4.40;;;;;;;;;;4999523;28;20034;-58
2023/12/28 11:34:25;;;;;;;17.27;5.10;;;;;;;;;;4998776;28;20117;-57
2023/12/28 11:36:52;;;;;;;12.70;5.10;;;;;;;;;;5002118;28;20072;-55
2023/12/28 11:39:28;;;;;;;11.60;4.53;;;;;;;;;;4998062;28;20270;-56
2023/12/28 11:42:00;;;;;;;12.20;4.82;;;;;;;;;;4998524;28;20032;-56
2023/12/28 11:44:26;;;;;;;8.73;4.18;;;;;;;;;;4998475;28;20569;-58
2023/12/28 11:46:51;;;;;;;10.07;4.32;;;;;;;;;;4999284;28;20033;-56
2023/12/28 11:49:24;;;;;;;7.72;3.90;;;;;;;;;;5001356;28;22971;-56
2023/12/28 11:51:53;;;;;;;14.00;4.82;;;;;;;;;;4999924;28;20309;-57
2023/12/28 11:54:19;;;;;;;;;;;;;;;;;;4985659;28;20873;-57
2023/12/28 11:56:44;;;;;;;8.45;3.97;;;;;;;;;;4998803;28;20055;-57
2023/12/28 11:59:10;;;;;;;9.73;4.05;;;;;;;;;;4998244;28;20038;-52
2023/12/28 12:01:35;;;;;;;13.93;5.78;;;;;;;;;;5000863;28;20467;-55
2023/12/28 12:04:01;;;;;;;8.82;3.45;;;;;;;;;;5010273;28;20481;-56
2023/12/28 12:06:26;;;;;;;9.73;3.20;;;;;;;;;;4998839;28;20033;-57
2023/12/28 12:08:51;;;;;;;9.15;3.58;;;;;;;;;;4997902;28;20117;-56
2023/12/28 12:11:18;;;;;;;10.77;3.83;;;;;;;;;;4996934;28;20059;-56
2023/12/28 12:13:43;;;;;;;5.40;3.10;;;;;;;;;;4998327;28;20277;-57
2023/12/28 12:16:09;;;;;;;9.23;3.17;;;;;;;;;;4996109;28;20620;-56
2023/12/28 12:18:34;;;;;;;5.07;3.00;;;;;;;;;;4996903;28;20042;-57
2023/12/28 12:21:00;;;;;;;7.47;2.92;;;;;;;;;;5002561;28;20045;-56
2023/12/28 12:23:26;;;;;;;13.50;4.53;;;;;;;;;;5002389;28;20036;-52
2023/12/28 12:25:51;;;;;;;9.95;3.72;;;;;;;;;;4996558;28;20057;-54
2023/12/28 12:28:17;;;;;;;7.82;3.28;;;;;;;;;;5044001;28;20752;-56
2023/12/28 12:30:49;;;;;;;4.10;2.80;;;;;;;;;;4998038;28;20026;-57
2023/12/28 12:33:15;;;;;;;6.18;3.25;;;;;;;;;;4997749;28;20025;-57
2023/12/28 12:35:40;;;;;;;10.13;4.40;;;;;;;;;;4997179;28;20453;-54
2023/12/28 12:38:06;;;;;;;9.38;3.60;;;;;;;;;;4999237;28;20033;-56
2023/12/28 12:40:31;;;;;;;9.55;3.63;;;;;;;;;;4995544;28;20021;-56
2023/12/28 12:42:58;;;;;;;7.57;3.75;;;;;;;;;;4997151;28;20038;-55
2023/12/28 12:45:24;;;;;;;5.88;3.33;;;;;;;;;;5006443;28;20038;-56
2023/12/28 12:47:50;;;;;;;10.05;3.95;;;;;;;;;;5010495;28;20071;-54
2023/12/28 12:50:15;;;;;;;13.82;4.65;;;;;;;;;;4996702;28;20021;-56
2023/12/28 12:52:41;;;;;;;9.00;3.58;;;;;;;;;;4996752;28;20119;-55
2023/12/28 12:55:10;;;;;;;5.57;3.33;;;;;;;;;;5001866;28;20120;-53
2023/12/28 12:57:35;;;;;;;9.07;4.00;;;;;;;;;;4996919;28;20114;-56
2023/12/28 13:00:04;;;;;;;8.57;4.07;;;;;;;;;;4996274;28;20668;-57
2023/12/28 13:02:30;;;;;;;7.20;3.78;;;;;;;;;;4998223;28;20123;-52
2023/12/28 13:04:55;;;;;;;10.15;3.80;;;;;;;;;;4994804;28;20056;-56
2023/12/28 13:07:21;;;;;;;9.10;4.25;;;;;;;;;;4998527;28;21946;-55
2023/12/28 13:09:46;;;;;;;9.00;4.20;;;;;;;;;;4998488;28;20068;-56
2023/12/28 13:12:11;;;;;;;12.32;4.43;;;;;;;;;;4996224;28;20488;-55
2023/12/28 13:14:36;;;;;;;9.85;3.80;;;;;;;;;;4996644;28;20654;-56
2023/12/28 13:17:02;;;;;;;8.95;4.85;;;;;;;;;;4998200;28;20060;-55
2023/12/28 13:19:27;;;;;;;5.97;3.65;;;;;;;;;;4995664;28;20025;-55
2023/12/28 13:21:53;;;;;;;9.88;4.35;;;;;;;;;;5005376;28;20025;-57
2023/12/28 13:24:18;;;;;;;12.63;4.47;;;;;;;;;;4996595;28;20068;-56
2023/12/28 13:26:44;;;;;;;10.40;4.05;;;;;;;;;;4998947;28;20567;-56
2023/12/28 13:29:09;;;;;;;9.85;4.25;;;;;;;;;;4994734;28;20029;-57
2023/12/28 13:31:34;;;;;;;8.32;4.15;;;;;;;;;;4997826;28;20116;-54
2023/12/28 13:34:00;;;;;;;11.02;4.90;;;;;;;;;;4995808;28;20033;-56
2023/12/28 13:36:26;;;;;;;10.15;4.60;;;;;;;;;;4995874;28;20029;-54
2023/12/28 13:38:52;;;;;;;8.82;4.40;;;;;;;;;;4995755;28;20025;-56
2023/12/28 13:41:17;;;;;;;12.77;5.30;;;;;;;;;;4997239;28;22031;-58
2023/12/28 13:43:42;;;;;;;15.52;6.03;;;;;;;;;;4998645;28;20411;-52
2023/12/28 13:46:07;;;;;;;11.73;4.78;;;;;;;;;;4994093;28;20124;-54
2023/12/28 13:48:33;;;;;;;10.73;4.88;;;;;;;;;;4998497;28;20037;-58
2023/12/28 13:50:59;;;;;;;13.88;5.63;;;;;;;;;;4994629;28;20441;-54
2023/12/28 13:53:24;;;;;;;8.45;4.78;;;;;;;;;;4996706;28;20487;-56
2023/12/28 13:55:49;;;;;;;9.57;5.15;;;;;;;;;;4995665;28;20069;-56
2023/12/28 13:58:14;;;;;;;14.20;5.80;;;;;;;;;;4998081;28;20044;-58
2023/12/28 14:00:40;;;;;;;13.80;5.88;;;;;;;;;;5012924;28;20033;-54
2023/12/28 14:03:05;;;;;;;20.35;6.03;;;;;;;;;;4999808;28;21827;-56
2023/12/28 14:05:31;;;;;;;18.45;7.53;;;;;;;;;;4995406;28;20609;-57
2023/12/28 14:07:56;;;;;;;17.42;7.85;;;;;;;;;;4998685;28;20036;-52
2023/12/28 14:10:22;;;;;;;17.67;6.72;;;;;;;;;;4995481;28;20022;-52
2023/12/28 14:12:47;;;;;;;14.95;6.70;;;;;;;;;;4999244;28;20029;-57
2023/12/28 14:15:15;;;;;;;11.10;5.65;;;;;;;;;;4999937;28;20236;-54
2023/12/28 14:17:40;;;;;;;19.75;6.53;;;;;;;;;;5006044;28;20575;-57
2023/12/28 14:20:08;;;;;;;12.98;6.20;;;;;;;;;;4998239;28;20030;-56
2023/12/28 14:22:33;;;;;;;12.45;6.35;;;;;;;;;;5011007;28;20029;-56